Time;durP1;ratioP1;P1;durP2;ratioP2;P2;SDS_P1;SDS_P2;PMS_P1;PMS_P2;Temp;Humidity;BMP_temperature;BMP_pressure;BME280_temperature;BME280_humidity;BME280_pressure;Samples;Min_cycle;Max_cycle;Signal;HPM_P1;HPM_P2
2022/09/14 00:01:59;;;;;;;14.45;10.00;;;20.40;99.90;;;;;;5016896;28;20036;-90
2022/09/14 00:04:25;;;;;;;15.45;9.85;;;20.40;99.90;;;;;;5005804;28;20499;-90
2022/09/14 00:06:50;;;;;;;16.35;9.77;;;20.30;99.90;;;;;;5008867;28;20037;-90
2022/09/14 00:09:19;;;;;;;14.35;10.10;;;20.40;99.90;;;;;;5014970;28;20026;-89
2022/09/14 00:11:45;;;;;;;16.00;10.57;;;20.30;99.90;;;;;;5009804;28;20026;-89
2022/09/14 00:14:11;;;;;;;16.90;10.60;;;20.40;99.90;;;;;;5031413;28;20468;-89
2022/09/14 00:16:39;;;;;;;16.05;9.55;;;20.40;99.90;;;;;;5031025;28;20014;-89
2022/09/14 00:19:26;;;;;;;16.65;11.55;;;20.40;99.90;;;;;;5010361;28;20480;-90
2022/09/14 00:21:54;;;;;;;20.15;11.38;;;20.40;99.90;;;;;;5014138;28;20080;-90
2022/09/14 00:24:21;;;;;;;19.85;11.32;;;20.40;99.90;;;;;;5006620;28;20057;-89
2022/09/14 00:26:47;;;;;;;20.55;12.23;;;20.40;99.90;;;;;;5004775;28;20030;-90
2022/09/14 00:29:13;;;;;;;18.52;10.65;;;20.40;99.90;;;;;;5013123;28;20022;-90
2022/09/14 00:31:39;;;;;;;19.40;12.18;;;20.40;99.90;;;;;;5033303;28;20018;-90
2022/09/14 00:34:07;;;;;;;16.00;10.98;;;20.40;99.90;;;;;;5023674;28;20034;-90
2022/09/14 00:36:37;;;;;;;16.40;10.98;;;20.40;99.90;;;;;;5023666;28;20439;-89
2022/09/14 00:39:03;;;;;;;18.92;11.75;;;20.40;99.90;;;;;;5023335;28;20041;-90
2022/09/14 00:41:32;;;;;;;18.63;11.82;;;20.40;99.90;;;;;;5003993;28;20055;-90
2022/09/14 00:44:09;;;;;;;17.67;11.15;;;20.40;99.90;;;;;;5034773;28;20026;-89
2022/09/14 00:46:43;;;;;;;20.70;12.23;;;20.40;99.90;;;;;;5024592;28;20844;-90
2022/09/14 00:49:18;;;;;;;25.25;14.18;;;20.40;99.90;;;;;;5012602;28;20065;-90
2022/09/14 00:52:09;;;;;;;20.13;13.23;;;20.40;99.90;;;;;;5007379;28;20022;-89
2022/09/14 00:54:44;;;;;;;18.33;12.73;;;20.40;99.90;;;;;;5015682;28;20063;-89
2022/09/14 00:57:10;;;;;;;17.58;11.32;;;20.40;99.90;;;;;;5015316;28;20118;-90
2022/09/14 00:59:39;;;;;;;17.63;12.02;;;20.40;99.90;;;;;;5006976;28;20402;-91
2022/09/14 01:02:08;;;;;;;18.88;12.73;;;20.30;99.90;;;;;;5028505;28;20084;-90
2022/09/14 01:04:34;;;;;;;19.98;12.70;;;20.30;99.90;;;;;;5007506;28;20030;-89
2022/09/14 01:07:20;;;;;;;17.52;11.35;;;20.30;99.90;;;;;;5077321;22;20095;-75
2022/09/14 01:10:08;;;;;;;18.08;12.57;;;20.30;99.90;;;;;;5038842;28;20074;-75
2022/09/14 01:12:48;;;;;;;17.30;11.95;;;20.30;99.90;;;;;;5045866;28;20029;-75
2022/09/14 01:15:34;;;;;;;19.48;12.65;;;20.30;99.90;;;;;;5034435;28;20497;-75
2022/09/14 01:18:13;;;;;;;19.73;13.18;;;20.30;99.90;;;;;;5046518;28;20032;-76
2022/09/14 01:20:42;;;;;;;21.48;13.20;;;20.30;99.90;;;;;;5030776;28;20548;-76
2022/09/14 01:23:27;;;;;;;21.83;14.20;;;20.30;99.90;;;;;;5028753;28;20033;-76
2022/09/14 01:26:11;;;;;;;20.92;14.23;;;20.30;99.90;;;;;;5030056;28;20029;-76
2022/09/14 01:28:52;;;;;;;19.75;12.88;;;20.30;99.90;;;;;;5038142;28;20124;-76
2022/09/14 01:31:31;;;;;;;18.17;11.88;;;20.30;99.90;;;;;;5030964;28;20546;-76
2022/09/14 01:34:35;;;;;;;22.30;12.15;;;20.30;99.90;;;;;;5019997;28;20040;-76
2022/09/14 01:37:11;;;;;;;16.92;11.77;;;20.30;99.90;;;;;;5015331;28;20041;-76
2022/09/14 01:39:42;;;;;;;20.45;11.35;;;20.30;99.90;;;;;;5023466;28;20104;-76
2022/09/14 01:42:11;;;;;;;19.50;12.73;;;20.30;99.90;;;;;;5009848;28;20061;-76
2022/09/14 01:44:41;;;;;;;20.20;13.13;;;20.30;99.90;;;;;;5028422;28;20460;-76
2022/09/14 01:47:22;;;;;;;24.50;13.45;;;20.30;99.90;;;;;;5025799;28;20033;-75
2022/09/14 01:49:57;;;;;;;20.17;12.20;;;20.30;99.90;;;;;;5028298;28;20040;-75
2022/09/14 01:52:29;;;;;;;21.30;13.57;;;20.30;99.90;;;;;;5028227;28;20049;-75
2022/09/14 01:55:24;;;;;;;18.27;11.88;;;20.30;99.90;;;;;;5031021;28;20021;-76
2022/09/14 01:58:02;;;;;;;19.13;12.75;;;20.20;99.90;;;;;;5030236;28;20044;-76
2022/09/14 02:00:29;;;;;;;22.13;13.70;;;20.30;99.90;;;;;;5028467;28;20481;-77
2022/09/14 02:03:14;;;;;;;22.38;14.48;;;20.30;99.90;;;;;;5025796;28;20060;-77
2022/09/14 02:05:49;;;;;;;21.17;13.73;;;20.30;99.90;;;;;;5025731;28;20049;-77
2022/09/14 02:08:15;;;;;;;21.23;12.85;;;20.30;99.90;;;;;;5030545;28;20026;-77
2022/09/14 02:10:41;;;;;;;19.83;13.07;;;20.30;99.90;;;;;;5029820;28;20548;-77
2022/09/14 02:13:07;;;;;;;25.70;15.40;;;20.30;99.90;;;;;;5026000;28;20029;-77
2022/09/14 02:15:35;;;;;;;23.17;14.05;;;20.30;99.90;;;;;;5029837;28;20045;-77
2022/09/14 02:18:02;;;;;;;23.23;13.95;;;20.30;99.90;;;;;;5029980;28;20025;-77
2022/09/14 02:20:47;;;;;;;22.40;13.95;;;20.30;99.90;;;;;;5028675;28;20025;-77
2022/09/14 02:23:13;;;;;;;20.92;13.23;;;20.20;99.90;;;;;;5031243;28;20101;-77
2022/09/14 02:25:41;;;;;;;22.67;13.85;;;20.20;99.90;;;;;;5030411;28;20113;-77
2022/09/14 02:28:07;;;;;;;22.85;14.82;;;20.20;99.90;;;;;;5029473;28;20474;-77
2022/09/14 02:30:47;;;;;;;21.73;14.32;;;20.20;99.90;;;;;;5030010;28;20100;-76
2022/09/14 02:33:18;;;;;;;22.20;13.20;;;20.20;99.90;;;;;;5026241;28;20121;-76
2022/09/14 02:35:51;;;;;;;19.92;12.43;;;20.20;99.90;;;;;;5029950;28;20030;-76
2022/09/14 02:38:20;;;;;;;19.92;12.18;;;20.20;99.90;;;;;;5028867;28;20486;-76
2022/09/14 02:41:00;;;;;;;19.33;12.23;;;20.20;99.90;;;;;;5030016;28;20064;-76
2022/09/14 02:43:42;;;;;;;21.88;12.98;;;20.20;99.90;;;;;;5027404;28;20061;-76
2022/09/14 02:46:55;;;;;;;20.45;12.65;;;20.20;99.90;;;;;;5025633;28;20424;-76
2022/09/14 02:49:43;;;;;;;22.20;11.80;;;20.20;99.90;;;;;;5010950;28;20459;-77
2022/09/14 02:52:17;;;;;;;19.50;12.13;;;20.20;99.90;;;;;;5028413;28;20401;-76
2022/09/14 02:54:45;;;;;;;23.58;12.35;;;20.20;99.90;;;;;;5027346;28;20029;-76
2022/09/14 02:57:11;;;;;;;19.85;11.50;;;20.20;99.90;;;;;;5028501;28;20116;-76
2022/09/14 02:59:37;;;;;;;19.30;10.90;;;20.20;99.90;;;;;;5027358;28;20132;-76
2022/09/14 03:02:03;;;;;;;16.77;10.95;;;20.20;99.90;;;;;;5024486;28;20075;-76
2022/09/14 03:04:28;;;;;;;16.70;11.27;;;20.20;99.90;;;;;;5020219;28;20393;-76
2022/09/14 03:06:54;;;;;;;15.50;10.30;;;20.20;99.90;;;;;;5028568;28;20041;-76
2022/09/14 03:09:20;;;;;;;15.57;10.95;;;20.20;99.90;;;;;;5023743;28;20029;-76
2022/09/14 03:11:46;;;;;;;17.00;10.45;;;20.20;99.90;;;;;;5041369;28;20057;-76
2022/09/14 03:14:11;;;;;;;14.98;10.52;;;20.10;99.90;;;;;;5028770;28;20113;-76
2022/09/14 03:16:38;;;;;;;15.40;9.95;;;20.20;99.90;;;;;;5027938;28;20029;-76
2022/09/14 03:19:05;;;;;;;17.35;11.40;;;20.20;99.90;;;;;;5040072;28;20076;-76
2022/09/14 03:21:31;;;;;;;15.20;10.52;;;20.20;99.90;;;;;;5028187;28;20117;-76
2022/09/14 03:23:57;;;;;;;17.40;11.27;;;20.20;99.90;;;;;;5024185;28;20084;-76
2022/09/14 03:26:25;;;;;;;16.50;10.05;;;20.20;99.90;;;;;;5027096;28;20029;-77
2022/09/14 03:28:52;;;;;;;18.58;11.38;;;20.20;99.90;;;;;;5039765;28;20049;-76
2022/09/14 03:31:19;;;;;;;19.35;10.43;;;20.10;99.90;;;;;;5025625;28;20030;-76
2022/09/14 03:33:45;;;;;;;14.32;9.88;;;20.10;99.90;;;;;;5027420;28;20060;-76
2022/09/14 03:36:12;;;;;;;15.63;10.60;;;20.10;99.90;;;;;;5028435;28;20049;-75
2022/09/14 03:38:37;;;;;;;15.80;10.32;;;20.10;99.90;;;;;;5017158;28;20061;-76
2022/09/14 03:41:10;;;;;;;14.80;9.95;;;20.10;99.90;;;;;;5040267;28;20620;-76
2022/09/14 03:43:36;;;;;;;17.15;10.45;;;20.10;99.90;;;;;;5019937;28;20060;-76
2022/09/14 03:46:09;;;;;;;16.75;10.77;;;20.10;99.90;;;;;;5027001;28;20030;-76
2022/09/14 03:48:35;;;;;;;;;;;20.10;99.90;;;;;;5032811;28;20462;-76
2022/09/14 03:51:06;;;;;;;14.13;9.77;;;20.10;99.90;;;;;;5027905;28;20012;-76
2022/09/14 03:53:32;;;;;;;17.38;10.90;;;20.10;99.90;;;;;;5024404;28;20116;-76
2022/09/14 03:55:58;;;;;;;16.65;9.77;;;20.10;99.90;;;;;;5021911;28;20394;-76
2022/09/14 03:58:25;;;;;;;15.40;9.63;;;20.10;99.90;;;;;;5027971;28;20029;-75
2022/09/14 04:00:51;;;;;;;13.82;8.82;;;20.10;99.90;;;;;;5026817;28;20022;-76
2022/09/14 04:03:17;;;;;;;13.63;8.70;;;20.10;99.90;;;;;;5026865;28;20065;-76
2022/09/14 04:05:54;;;;;;;14.05;9.98;;;20.10;99.90;;;;;;5028466;28;20022;-76
2022/09/14 04:08:19;;;;;;;15.77;9.05;;;20.10;99.90;;;;;;5019972;28;20109;-76
2022/09/14 04:10:45;;;;;;;14.65;9.27;;;20.10;99.90;;;;;;5028943;28;20116;-76
2022/09/14 04:13:11;;;;;;;15.75;9.45;;;20.10;99.90;;;;;;5021100;28;20494;-76
2022/09/14 04:15:36;;;;;;;14.60;9.35;;;20.10;99.90;;;;;;5029526;28;20493;-76
2022/09/14 04:18:02;;;;;;;13.35;8.68;;;20.10;99.90;;;;;;5029484;28;20109;-76
2022/09/14 04:20:28;;;;;;;16.55;9.98;;;20.10;99.90;;;;;;5032070;28;20025;-76
2022/09/14 04:22:54;;;;;;;14.57;10.23;;;20.10;99.90;;;;;;5022275;28;20500;-76
2022/09/14 04:25:21;;;;;;;16.13;9.80;;;20.10;99.90;;;;;;5032168;28;20036;-76
2022/09/14 04:27:48;;;;;;;13.40;8.95;;;20.10;99.90;;;;;;5028842;28;20061;-76
2022/09/14 04:30:14;;;;;;;12.70;8.68;;;20.10;99.90;;;;;;5026128;28;20118;-76
2022/09/14 04:32:40;;;;;;;15.65;9.57;;;20.00;99.90;;;;;;5025517;28;20029;-76
2022/09/14 04:35:07;;;;;;;18.17;9.07;;;20.00;99.90;;;;;;5032131;28;20089;-76
2022/09/14 04:37:33;;;;;;;11.20;7.90;;;20.00;99.90;;;;;;5026879;28;20113;-76
2022/09/14 04:39:59;;;;;;;14.02;8.63;;;20.00;99.90;;;;;;5032595;28;20116;-76
2022/09/14 04:42:24;;;;;;;12.90;8.40;;;20.00;99.90;;;;;;5028947;28;20029;-76
2022/09/14 04:44:50;;;;;;;13.73;8.20;;;20.10;99.90;;;;;;5021153;28;20057;-77
2022/09/14 04:47:16;;;;;;;14.07;9.00;;;20.00;99.90;;;;;;5031195;28;20057;-77
2022/09/14 04:49:42;;;;;;;13.38;9.20;;;20.00;99.90;;;;;;5030093;28;20389;-77
2022/09/14 04:52:07;;;;;;;13.20;8.93;;;20.00;99.90;;;;;;5021791;28;20499;-77
2022/09/14 04:54:33;;;;;;;16.23;10.60;;;20.00;99.90;;;;;;5030529;28;20026;-77
2022/09/14 04:56:59;;;;;;;16.40;9.60;;;20.10;99.90;;;;;;5023082;28;20018;-77
2022/09/14 04:59:24;;;;;;;15.75;10.10;;;20.10;99.90;;;;;;5018897;28;20082;-77
2022/09/14 05:01:50;;;;;;;14.40;9.13;;;20.00;99.90;;;;;;5031215;28;20066;-77
2022/09/14 05:04:16;;;;;;;15.15;9.88;;;20.00;99.90;;;;;;5030949;28;20504;-77
2022/09/14 05:06:43;;;;;;;14.70;9.38;;;20.00;99.90;;;;;;5030887;28;20086;-77
2022/09/14 05:09:17;;;;;;;14.88;10.40;;;20.00;99.90;;;;;;5029507;28;20176;-76
2022/09/14 05:11:44;;;;;;;14.40;9.57;;;20.00;99.90;;;;;;5030712;28;20162;-76
2022/09/14 05:14:12;;;;;;;15.30;10.57;;;20.10;99.90;;;;;;5038590;28;20059;-76
2022/09/14 05:16:39;;;;;;;18.20;9.95;;;20.10;99.90;;;;;;5028240;28;20543;-76
2022/09/14 05:19:09;;;;;;;21.05;12.25;;;20.00;99.90;;;;;;5025375;28;20033;-76
2022/09/14 05:21:36;;;;;;;16.30;9.82;;;20.00;99.90;;;;;;5029333;28;20028;-76
2022/09/14 05:24:11;;;;;;;18.13;10.48;;;20.00;99.90;;;;;;5028943;28;20136;-76
2022/09/14 05:26:37;;;;;;;18.80;11.48;;;20.00;99.90;;;;;;5021238;28;20083;-76
2022/09/14 05:29:03;;;;;;;16.88;10.20;;;20.00;99.90;;;;;;5029214;28;20175;-76
2022/09/14 05:31:30;;;;;;;15.10;10.27;;;20.00;99.90;;;;;;5026797;28;20021;-76
2022/09/14 05:33:57;;;;;;;19.00;10.43;;;20.00;99.90;;;;;;5027303;28;20022;-76
2022/09/14 05:36:23;;;;;;;17.73;10.93;;;20.00;99.90;;;;;;5026422;28;20481;-76
2022/09/14 05:38:49;;;;;;;16.48;10.90;;;20.00;99.90;;;;;;5028927;28;20040;-76
2022/09/14 05:41:15;;;;;;;16.30;10.02;;;20.00;99.90;;;;;;5022627;28;20033;-76
2022/09/14 05:43:42;;;;;;;17.88;9.88;;;20.00;99.90;;;;;;5029196;28;20029;-76
2022/09/14 05:46:11;;;;;;;15.07;9.73;;;20.00;99.90;;;;;;5029579;28;20539;-76
2022/09/14 05:48:38;;;;;;;17.35;10.80;;;20.00;99.90;;;;;;5025374;28;20406;-76
2022/09/14 05:51:06;;;;;;;16.58;10.77;;;20.00;99.90;;;;;;5028662;28;20017;-76
2022/09/14 05:53:33;;;;;;;15.52;10.35;;;19.90;99.90;;;;;;5028853;28;20234;-76
2022/09/14 05:56:04;;;;;;;17.10;10.38;;;20.00;99.90;;;;;;5031051;28;20025;-76
2022/09/14 05:58:30;;;;;;;16.20;10.30;;;20.00;99.90;;;;;;5026008;28;20460;-77
2022/09/14 06:00:56;;;;;;;15.38;10.07;;;20.00;99.90;;;;;;5029213;28;20347;-77
2022/09/14 06:03:22;;;;;;;18.25;10.80;;;20.00;99.90;;;;;;5029742;28;20413;-77
2022/09/14 06:05:48;;;;;;;15.52;9.70;;;20.00;99.90;;;;;;5028084;28;20477;-77
2022/09/14 06:08:13;;;;;;;13.23;8.80;;;19.90;99.90;;;;;;5024384;28;20045;-77
2022/09/14 06:10:39;;;;;;;13.75;8.90;;;19.90;99.90;;;;;;5030338;28;20048;-77
2022/09/14 06:13:05;;;;;;;13.68;8.77;;;19.90;99.90;;;;;;5030595;28;20028;-77
2022/09/14 06:15:33;;;;;;;15.68;9.88;;;19.90;99.90;;;;;;5030980;28;20057;-77
2022/09/14 06:17:58;;;;;;;14.88;7.95;;;19.90;99.90;;;;;;5029685;28;20120;-77
2022/09/14 06:20:24;;;;;;;18.20;10.13;;;19.90;99.90;;;;;;5029419;28;20030;-77
2022/09/14 06:22:50;;;;;;;16.77;9.48;;;19.90;99.90;;;;;;5028097;28;20033;-77
2022/09/14 06:25:15;;;;;;;14.68;9.85;;;19.90;99.90;;;;;;5021742;28;20033;-77
2022/09/14 06:27:41;;;;;;;15.63;9.05;;;19.90;99.90;;;;;;5028077;28;20126;-77
2022/09/14 06:30:08;;;;;;;13.23;8.65;;;19.90;99.90;;;;;;5024433;28;20046;-77
2022/09/14 06:32:34;;;;;;;15.15;9.30;;;19.90;99.90;;;;;;5026757;28;20308;-77
2022/09/14 06:34:59;;;;;;;18.80;9.68;;;19.90;99.90;;;;;;5023760;28;20116;-77
2022/09/14 06:37:25;;;;;;;15.60;9.48;;;19.90;99.90;;;;;;5023756;28;20474;-76
2022/09/14 06:39:51;;;;;;;15.35;9.60;;;19.90;99.90;;;;;;5027916;28;20072;-77
2022/09/14 06:42:16;;;;;;;12.82;8.07;;;19.90;99.90;;;;;;5023665;28;20034;-76
2022/09/14 06:44:42;;;;;;;13.48;8.65;;;19.90;99.90;;;;;;5021456;28;20033;-76
2022/09/14 06:47:08;;;;;;;19.42;8.63;;;19.90;99.90;;;;;;5015429;28;20068;-77
2022/09/14 06:49:34;;;;;;;13.90;9.00;;;19.90;99.90;;;;;;5028072;28;20056;-76
2022/09/14 06:52:00;;;;;;;12.63;8.52;;;19.90;99.90;;;;;;5036761;28;20133;-77
2022/09/14 06:54:26;;;;;;;13.20;7.72;;;19.90;99.90;;;;;;5029136;28;20533;-77
2022/09/14 06:56:52;;;;;;;12.90;7.70;;;19.90;99.90;;;;;;5029467;28;20025;-77
2022/09/14 06:59:18;;;;;;;13.70;8.45;;;19.80;99.90;;;;;;5022285;28;20065;-78
2022/09/14 07:01:44;;;;;;;11.35;7.97;;;19.90;99.90;;;;;;5021092;28;20033;-78
2022/09/14 07:04:11;;;;;;;13.55;8.45;;;19.80;99.90;;;;;;5023808;28;20048;-78
2022/09/14 07:06:42;;;;;;;11.98;7.55;;;19.90;99.90;;;;;;5021391;28;20040;-78
2022/09/14 07:09:08;;;;;;;12.07;7.43;;;19.90;99.90;;;;;;5026396;28;20041;-78
2022/09/14 07:11:34;;;;;;;11.93;7.60;;;19.90;99.90;;;;;;5025994;28;20580;-78
2022/09/14 07:14:00;;;;;;;10.48;6.90;;;19.90;99.90;;;;;;5025051;28;20351;-78
2022/09/14 07:16:28;;;;;;;10.48;7.40;;;19.90;99.90;;;;;;5026840;28;20095;-78
2022/09/14 07:18:58;;;;;;;10.55;6.95;;;19.80;99.90;;;;;;5025797;28;20128;-78
2022/09/14 07:21:25;;;;;;;10.05;6.90;;;19.80;99.90;;;;;;5019675;28;20109;-78
2022/09/14 07:23:51;;;;;;;11.80;8.00;;;19.80;99.90;;;;;;5041232;28;20068;-77
2022/09/14 07:26:22;;;;;;;12.60;7.57;;;19.80;99.90;;;;;;5028489;28;20861;-77
2022/09/14 07:28:52;;;;;;;15.18;6.47;;;19.80;99.90;;;;;;5024831;28;20508;-77
2022/09/14 07:31:42;;;;;;;13.02;7.53;;;19.80;99.90;;;;;;5027152;28;20037;-77
2022/09/14 07:34:08;;;;;;;10.73;7.18;;;19.80;99.90;;;;;;5028493;28;20032;-77
2022/09/14 07:36:35;;;;;;;10.93;7.15;;;19.80;99.90;;;;;;5028271;28;20428;-77
2022/09/14 07:39:05;;;;;;;11.68;7.07;;;19.80;99.90;;;;;;5027863;28;20048;-77
2022/09/14 07:41:32;;;;;;;9.95;7.00;;;19.80;99.90;;;;;;5029109;28;20026;-77
2022/09/14 07:44:00;;;;;;;10.27;6.53;;;19.90;99.90;;;;;;5036739;28;20052;-76
2022/09/14 07:46:28;;;;;;;11.73;6.68;;;19.90;99.90;;;;;;5027914;28;20086;-76
2022/09/14 07:48:56;;;;;;;11.82;6.57;;;19.80;99.90;;;;;;5020948;28;20474;-76
2022/09/14 07:51:22;;;;;;;9.85;6.70;;;19.90;99.90;;;;;;5026727;28;20084;-76
2022/09/14 07:53:48;;;;;;;9.75;7.15;;;19.90;99.90;;;;;;5031893;28;20080;-77
2022/09/14 07:56:18;;;;;;;10.50;7.55;;;19.90;99.90;;;;;;5036054;28;20028;-77
2022/09/14 07:58:44;;;;;;;9.05;6.47;;;19.80;99.90;;;;;;5036243;28;20017;-77
2022/09/14 08:01:12;;;;;;;12.00;5.80;;;19.90;99.90;;;;;;5017681;28;20029;-76
2022/09/14 08:03:40;;;;;;;8.57;6.30;;;19.90;99.90;;;;;;5025938;28;20033;-76
2022/09/14 08:06:09;;;;;;;7.80;5.57;;;19.80;99.90;;;;;;5028314;28;20085;-76
2022/09/14 08:08:38;;;;;;;7.95;5.22;;;19.80;99.90;;;;;;5029696;28;20017;-76
2022/09/14 08:11:18;;;;;;;8.50;5.63;;;19.80;99.90;;;;;;5033672;28;20030;-76
2022/09/14 08:13:52;;;;;;;8.48;5.50;;;19.80;99.90;;;;;;5029476;28;20033;-76
2022/09/14 08:16:19;;;;;;;8.88;6.32;;;19.80;99.90;;;;;;5048499;28;20025;-75
2022/09/14 08:18:46;;;;;;;9.95;5.45;;;19.80;99.90;;;;;;5032905;28;20064;-75
2022/09/14 08:21:14;;;;;;;7.72;5.85;;;19.80;99.90;;;;;;5033006;28;20095;-76
2022/09/14 08:23:40;;;;;;;7.85;5.32;;;19.80;99.90;;;;;;5026375;28;20546;-76
2022/09/14 08:26:17;;;;;;;11.48;5.82;;;19.80;99.90;;;;;;5032550;28;20021;-75
2022/09/14 08:28:43;;;;;;;9.70;5.82;;;19.80;99.90;;;;;;5018930;28;20053;-76
2022/09/14 08:31:12;;;;;;;9.48;5.57;;;19.80;99.90;;;;;;5030638;28;20142;-76
2022/09/14 08:33:40;;;;;;;8.85;5.70;;;19.80;99.90;;;;;;5033146;28;20299;-76
2022/09/14 08:36:07;;;;;;;6.60;4.82;;;19.80;99.90;;;;;;5024072;28;20385;-75
2022/09/14 08:38:34;;;;;;;7.03;4.57;;;19.80;99.90;;;;;;5030934;28;20136;-76
2022/09/14 08:41:26;;;;;;;8.32;5.72;;;19.80;99.90;;;;;;5031638;28;20144;-76
2022/09/14 08:43:52;;;;;;;8.10;5.82;;;19.80;99.90;;;;;;5027789;28;20064;-76
2022/09/14 08:46:33;;;;;;;8.48;5.20;;;19.80;99.90;;;;;;5030373;28;20061;-75
2022/09/14 08:49:00;;;;;;;8.02;5.45;;;19.80;99.90;;;;;;5029040;28;20079;-76
2022/09/14 08:51:26;;;;;;;7.30;5.13;;;19.80;99.90;;;;;;5029187;28;20037;-76
2022/09/14 08:53:55;;;;;;;8.70;5.97;;;19.80;99.90;;;;;;5024309;28;20390;-76
2022/09/14 08:56:25;;;;;;;7.78;5.82;;;19.80;99.90;;;;;;5021459;28;20604;-76
2022/09/14 08:59:17;;;;;;;8.75;6.07;;;19.80;99.90;;;;;;5028310;28;20489;-76
2022/09/14 09:02:16;;;;;;;6.22;5.05;;;19.80;99.90;;;;;;5025557;28;20033;-75
2022/09/14 09:05:04;;;;;;;7.65;5.32;;;19.80;99.90;;;;;;5023978;28;20128;-75
2022/09/14 09:07:55;;;;;;;7.70;4.97;;;19.80;99.90;;;;;;5023381;28;20030;-75
2022/09/14 09:10:21;;;;;;;6.18;4.93;;;19.70;99.90;;;;;;5061321;22;20055;-90
2022/09/14 09:12:55;;;;;;;6.75;4.90;;;19.70;99.90;;;;;;5045723;28;20018;-90
2022/09/14 09:15:35;;;;;;;9.50;5.53;;;19.70;99.90;;;;;;5066491;28;20049;-89
2022/09/14 09:18:15;;;;;;;7.30;5.07;;;19.80;99.90;;;;;;5056963;28;20033;-89
2022/09/14 09:20:51;;;;;;;7.55;4.78;;;19.70;99.90;;;;;;5059334;28;20047;-90
2022/09/14 09:23:19;;;;;;;9.55;4.68;;;19.70;99.90;;;;;;5068421;28;20108;-90
2022/09/14 09:25:57;;;;;;;8.93;4.70;;;19.70;99.90;;;;;;5068493;28;20018;-90
2022/09/14 09:28:25;;;;;;;6.93;4.45;;;19.80;99.90;;;;;;5041301;28;20128;-90
2022/09/14 09:30:57;;;;;;;7.07;4.82;;;19.70;99.90;;;;;;5064535;28;20053;-89
2022/09/14 09:33:25;;;;;;;7.05;4.60;;;19.70;99.90;;;;;;5053827;28;20025;-90
2022/09/14 09:35:53;;;;;;;6.82;4.60;;;19.70;99.90;;;;;;5052920;28;20029;-89
2022/09/14 09:38:23;;;;;;;6.18;5.20;;;19.70;99.90;;;;;;5065756;28;20500;-90
2022/09/14 09:41:18;;;;;;;5.20;4.22;;;19.70;99.90;;;;;;5071004;28;20024;-90
2022/09/14 09:44:10;;;;;;;5.55;4.30;;;19.70;99.90;;;;;;5050765;28;20104;-89
2022/09/14 09:46:47;;;;;;;5.82;3.95;;;19.70;99.90;;;;;;5034113;28;20056;-89
2022/09/14 09:49:36;;;;;;;6.18;4.00;;;19.70;99.90;;;;;;5053660;28;20119;-89
2022/09/14 09:52:15;;;;;;;4.70;3.70;;;19.70;99.90;;;;;;5050260;28;20033;-89
2022/09/14 09:54:52;;;;;;;5.88;4.10;;;19.70;99.90;;;;;;5040282;28;20033;-89
2022/09/14 09:57:30;;;;;;;5.07;3.63;;;19.70;99.90;;;;;;5045071;28;20478;-89
2022/09/14 10:00:28;;;;;;;5.32;3.90;;;19.70;99.90;;;;;;5070954;28;20055;-89
2022/09/14 10:02:55;;;;;;;6.57;4.55;;;19.70;99.90;;;;;;5046249;28;20029;-89
2022/09/14 10:05:30;;;;;;;10.15;4.60;;;19.70;99.90;;;;;;5066266;28;20025;-88
2022/09/14 10:08:05;;;;;;;5.28;4.00;;;19.70;99.90;;;;;;5050352;28;20021;-88
2022/09/14 10:10:34;;;;;;;5.80;3.90;;;19.70;99.90;;;;;;5049312;28;20033;-88
2022/09/14 10:13:01;;;;;;;6.20;3.63;;;19.70;99.90;;;;;;5047448;28;20371;-89
2022/09/14 10:15:31;;;;;;;6.63;3.67;;;19.70;99.90;;;;;;5048492;28;20029;-89
2022/09/14 10:18:12;;;;;;;4.22;3.53;;;19.70;99.90;;;;;;5044807;28;20025;-88
2022/09/14 10:20:41;;;;;;;4.38;3.42;;;19.70;99.90;;;;;;5042273;28;20021;-88
2022/09/14 10:23:19;;;;;;;4.60;3.17;;;19.70;99.90;;;;;;5043388;28;20032;-88
2022/09/14 10:25:50;;;;;;;5.00;3.33;;;19.70;99.90;;;;;;5050039;28;20044;-88
2022/09/14 10:28:26;;;;;;;6.05;3.35;;;19.70;99.90;;;;;;5045491;28;20064;-87
2022/09/14 10:31:18;;;;;;;4.47;3.50;;;19.70;99.90;;;;;;5043310;28;20018;-88
2022/09/14 10:33:45;;;;;;;9.25;3.30;;;19.70;99.90;;;;;;5063506;28;20058;-88
2022/09/14 10:36:16;;;;;;;4.40;3.60;;;19.70;99.90;;;;;;5042132;28;20412;-89
2022/09/14 10:38:47;;;;;;;4.43;3.28;;;19.70;99.90;;;;;;5070099;28;20029;-87
2022/09/14 10:41:18;;;;;;;3.92;3.15;;;19.70;99.90;;;;;;5049705;28;20506;-88
2022/09/14 10:44:21;;;;;;;4.88;3.22;;;19.70;99.90;;;;;;5029374;28;20049;-88
2022/09/14 10:46:58;;;;;;;5.05;3.30;;;19.70;99.90;;;;;;5045238;28;20029;-88
2022/09/14 10:50:10;;;;;;;5.43;3.45;;;19.70;99.90;;;;;;5046582;28;20033;-88
2022/09/14 10:52:41;;;;;;;5.00;3.70;;;19.70;99.90;;;;;;5047174;28;21675;-88
2022/09/14 10:55:23;;;;;;;6.80;3.28;;;19.70;99.90;;;;;;5050324;28;20109;-89
2022/09/14 10:58:17;;;;;;;3.15;2.33;;;19.70;99.90;;;;;;5036360;28;20033;-88
2022/09/14 11:01:09;;;;;;;4.78;3.40;;;19.70;99.90;;;;;;5058135;28;20076;-88
2022/09/14 11:04:13;;;;;;;4.88;3.40;;;19.70;99.90;;;;;;5070639;28;20079;-89
2022/09/14 11:07:17;;;;;;;4.32;3.10;;;19.70;99.90;;;;;;5049903;28;20033;-88
2022/09/14 11:09:51;;;;;;;10.80;3.65;;;19.70;99.90;;;;;;4973108;28;20030;-89
2022/09/14 11:12:50;;;;;;;9.13;3.15;;;19.70;99.90;;;;;;4973864;28;20046;-88
2022/09/14 11:15:30;;;;;;;4.22;2.85;;;19.70;99.90;;;;;;5033123;28;20032;-89
2022/09/14 11:18:16;;;;;;;5.97;2.85;;;19.70;99.90;;;;;;5047495;28;20017;-88
2022/09/14 11:20:51;;;;;;;5.43;3.20;;;19.70;99.90;;;;;;5062221;28;20029;-88
2022/09/14 11:23:51;;;;;;;5.93;2.50;;;19.60;99.90;;;;;;5057267;28;20025;-89
2022/09/14 11:26:35;;;;;;;6.97;3.08;;;19.70;99.90;;;;;;5045814;28;20017;-88
2022/09/14 11:29:23;;;;;;;5.80;2.78;;;19.70;99.90;;;;;;5051915;28;20128;-88
2022/09/14 11:31:53;;;;;;;7.38;2.88;;;19.70;99.90;;;;;;5066715;28;20032;-87
2022/09/14 11:34:31;;;;;;;4.13;2.67;;;19.70;99.90;;;;;;5051454;28;20028;-89
2022/09/14 11:37:09;;;;;;;5.10;2.75;;;19.70;99.90;;;;;;5044284;28;20075;-89
2022/09/14 11:39:43;;;;;;;5.13;2.80;;;19.70;99.90;;;;;;5046631;28;20029;-89
2022/09/14 11:42:25;;;;;;;3.83;2.30;;;19.70;99.90;;;;;;5050501;28;20063;-90
2022/09/14 11:45:01;;;;;;;4.10;2.15;;;19.70;99.90;;;;;;5026014;28;20207;-89
2022/09/14 11:47:30;;;;;;;2.78;2.15;;;19.70;99.90;;;;;;5045756;28;20044;-89
2022/09/14 11:49:59;;;;;;;4.32;1.92;;;19.70;99.90;;;;;;5056031;28;20047;-89
2022/09/14 11:52:27;;;;;;;3.47;2.10;;;19.70;99.90;;;;;;5055382;28;20839;-89
2022/09/14 11:54:53;;;;;;;2.67;2.08;;;19.70;99.90;;;;;;5054224;28;20052;-90
2022/09/14 11:57:29;;;;;;;4.15;2.90;;;19.70;99.90;;;;;;5053666;28;20032;-90
2022/09/14 12:00:00;;;;;;;2.80;1.85;;;19.70;99.90;;;;;;5054749;28;20021;-90
2022/09/14 12:02:26;;;;;;;3.25;2.30;;;19.70;99.90;;;;;;5056522;28;20025;-89
2022/09/14 12:05:04;;;;;;;2.60;1.80;;;19.70;99.90;;;;;;5048810;28;20035;-90
2022/09/14 12:07:41;;;;;;;5.85;2.38;;;19.70;99.90;;;;;;5049952;28;20473;-91
2022/09/14 12:10:12;;;;;;;2.70;1.80;;;19.70;99.90;;;;;;5053239;28;20032;-90
2022/09/14 12:12:40;;;;;;;2.60;2.30;;;19.70;99.90;;;;;;5044203;28;21221;-91
2022/09/14 12:15:35;;;;;;;2.22;1.90;;;19.70;99.90;;;;;;5053258;28;20116;-90
2022/09/14 12:18:06;;;;;;;3.33;2.13;;;19.70;99.90;;;;;;5057775;28;20021;-90
2022/09/14 12:20:58;;;;;;;2.20;1.80;;;19.70;99.90;;;;;;5069008;28;20036;-90
2022/09/14 12:23:36;;;;;;;2.22;1.75;;;19.70;99.90;;;;;;5054097;28;20040;-90
2022/09/14 12:26:04;;;;;;;3.05;2.00;;;19.70;99.90;;;;;;5064013;28;20134;-89
2022/09/14 12:28:39;;;;;;;3.33;2.13;;;19.60;99.90;;;;;;5047785;28;20021;-90
2022/09/14 12:31:04;;;;;;;2.38;2.13;;;19.70;99.90;;;;;;5055839;28;20075;-89
2022/09/14 12:33:30;;;;;;;2.05;1.63;;;19.70;99.90;;;;;;5051420;28;20835;-89
2022/09/14 12:36:05;;;;;;;2.30;1.92;;;19.70;99.90;;;;;;5050753;28;20021;-88
2022/09/14 12:38:30;;;;;;;3.40;2.05;;;19.70;99.90;;;;;;5050577;28;20125;-87
2022/09/14 12:40:57;;;;;;;2.88;2.15;;;19.60;99.90;;;;;;5054521;28;20145;-86
2022/09/14 12:43:31;;;;;;;4.70;2.28;;;19.60;99.90;;;;;;5008616;28;20021;-85
2022/09/14 12:45:59;;;;;;;2.33;1.92;;;19.60;99.90;;;;;;5053171;28;20017;-86
2022/09/14 12:48:47;;;;;;;2.53;1.98;;;19.60;99.90;;;;;;5042155;28;20376;-86
2022/09/14 12:51:24;;;;;;;1.60;1.50;;;19.60;99.90;;;;;;5049135;28;20213;-87
2022/09/14 12:54:08;;;;;;;2.22;1.80;;;19.50;99.90;;;;;;5051224;28;20057;-86
2022/09/14 12:56:53;;;;;;;;;;;19.50;99.90;;;;;;5051837;28;20568;-85
2022/09/14 12:59:37;;;;;;;2.28;1.60;;;19.40;99.90;;;;;;5044804;28;19909;-86
2022/09/14 13:02:27;;;;;;;3.60;1.30;;;19.50;99.90;;;;;;5045614;28;20032;-86
2022/09/14 13:04:55;;;;;;;1.33;1.23;;;19.50;99.90;;;;;;5037642;28;20021;-86